Ryegate, Montana
Current Conditions -  °F | °C
As of 1:15 AM on Saturday 25 Oct 2014 (Local Time) from KMVH Reporting Station
Clear Clear  
Wind Chill: 33°   Ceiling: Unl
Heat Index: 37°   Visibility: 10mi
Dew Point: 36°   Wind: 6mph
Humidity: 93%   Direction: 290°WNW
Pressure: 30.13"   Gusts: NA
Location:  46.3°N, 109.26°W
Report Text: KMVH 250715Z AUTO 29005KT 10SM CLR 03/02 A3013 RMK A01
Loading
Personal Weather Stations






























Interactive Weather Map
Tropical Storm Tracking
New forecast layout! Learn more

10-Day Weather Forecast

Advertisements
Track Severe Weather on mobile